createdAt,value
2022-11-08T00:00:19.709Z,56.20
2022-11-08T00:02:46.304Z,56.30
2022-11-08T00:05:12.914Z,56.30
2022-11-08T00:07:39.394Z,56.30
2022-11-08T00:10:05.906Z,56.40
2022-11-08T00:12:32.391Z,56.30
2022-11-08T00:14:58.879Z,56.40
2022-11-08T00:17:30.075Z,56.40
2022-11-08T00:19:56.543Z,56.40
2022-11-08T00:22:23.023Z,56.30
2022-11-08T00:24:49.482Z,56.40
2022-11-08T00:27:15.962Z,56.50
2022-11-08T00:29:42.447Z,56.40
2022-11-08T00:32:08.917Z,56.50
2022-11-08T00:34:35.396Z,56.50
2022-11-08T00:37:06.096Z,56.40
2022-11-08T00:39:36.292Z,56.50
2022-11-08T00:42:02.783Z,56.50
2022-11-08T00:44:29.261Z,56.50
2022-11-08T00:52:42.106Z,56.60
2022-11-08T00:55:12.281Z,56.60
2022-11-08T00:57:54.114Z,56.80
2022-11-08T01:00:30.127Z,56.70
2022-11-08T01:02:56.599Z,56.60
2022-11-08T01:05:23.082Z,56.50
2022-11-08T01:07:49.559Z,56.70
2022-11-08T01:10:16.066Z,56.60
2022-11-08T01:12:48.137Z,56.60
2022-11-08T01:15:14.658Z,56.60
2022-11-08T01:17:41.154Z,56.70
2022-11-08T01:20:07.630Z,56.70
2022-11-08T01:22:34.117Z,56.70
2022-11-08T01:25:00.600Z,56.70
2022-11-08T01:27:27.085Z,56.60
2022-11-08T01:29:53.551Z,56.60
2022-11-08T01:32:20.035Z,56.60
2022-11-08T01:34:46.518Z,56.60
2022-11-08T01:40:03.513Z,56.70
2022-11-08T01:42:30.012Z,56.60
2022-11-08T01:47:46.751Z,56.70
2022-11-08T01:50:13.253Z,56.60
2022-11-08T01:52:42.104Z,56.70
2022-11-08T01:55:08.608Z,56.70
2022-11-08T01:57:36.119Z,56.70
2022-11-08T02:00:02.634Z,56.70
2022-11-08T02:02:29.160Z,56.80
2022-11-08T02:05:00.334Z,56.70
2022-11-08T04:03:25.711Z,57.00
2022-11-08T04:05:54.255Z,57.10
2022-11-08T04:08:24.431Z,57.10
2022-11-08T04:10:50.909Z,57.10
2022-11-08T04:13:17.373Z,57.10
2022-11-08T04:15:43.870Z,57.10
2022-11-08T04:18:10.327Z,57.20
2022-11-08T04:20:36.796Z,57.10
2022-11-08T04:23:03.267Z,57.00
2022-11-08T04:25:34.807Z,57.00
2022-11-08T04:28:01.630Z,57.00
2022-11-08T04:30:28.104Z,57.10
2022-11-08T04:32:54.572Z,57.20
2022-11-08T04:35:21.051Z,57.10
2022-11-08T04:37:47.503Z,57.00
2022-11-08T04:40:13.965Z,57.20
2022-11-08T04:42:42.264Z,57.20
2022-11-08T04:45:08.713Z,57.10
2022-11-08T04:47:40.154Z,57.10
2022-11-08T04:50:08.557Z,57.20
2022-11-08T04:52:35.012Z,57.10
2022-11-08T04:55:01.479Z,57.20
2022-11-08T04:57:27.944Z,57.10
2022-11-08T04:59:54.414Z,57.20
2022-11-08T05:02:24.556Z,57.10
2022-11-08T05:04:54.279Z,57.20
2022-11-08T05:07:20.740Z,57.30
2022-11-08T05:09:47.199Z,57.30
2022-11-08T05:12:13.663Z,57.30
2022-11-08T05:14:40.128Z,57.30
2022-11-08T05:17:12.282Z,57.30
2022-11-08T05:19:42.295Z,57.40
2022-11-08T05:22:08.742Z,57.40
2022-11-08T05:24:36.312Z,57.30
2022-11-08T05:27:06.324Z,57.40
2022-11-08T05:29:32.784Z,57.40
2022-11-08T05:31:59.249Z,57.30
2022-11-08T05:34:25.718Z,57.20
2022-11-08T05:36:52.178Z,57.10
2022-11-08T05:39:18.659Z,57.10
2022-11-08T05:41:45.111Z,57.10
2022-11-08T05:44:12.319Z,57.10
2022-11-08T05:46:38.782Z,57.20
2022-11-08T05:49:05.262Z,57.20
2022-11-08T05:51:31.725Z,57.10
2022-11-08T05:53:58.191Z,57.10
2022-11-08T05:56:24.679Z,57.10
2022-11-08T05:58:51.152Z,57.10
2022-11-08T06:01:18.368Z,57.20
2022-11-08T06:03:44.820Z,57.10
2022-11-08T06:06:11.299Z,57.00
2022-11-08T06:08:37.763Z,57.00
2022-11-08T06:11:06.353Z,57.00
2022-11-08T06:13:33.445Z,57.00
2022-11-08T06:16:00.068Z,57.00
2022-11-08T06:18:36.550Z,57.00
2022-11-08T06:21:03.057Z,56.90
2022-11-08T06:23:29.549Z,56.90
2022-11-08T06:25:56.022Z,56.90
2022-11-08T06:28:22.488Z,56.90
2022-11-08T06:30:48.999Z,56.90
2022-11-08T06:33:15.852Z,56.80
2022-11-08T06:35:42.663Z,56.80
2022-11-08T06:38:09.429Z,56.60
2022-11-08T06:40:36.131Z,56.80
2022-11-08T06:43:02.575Z,56.60
2022-11-08T06:45:29.056Z,56.60
2022-11-08T06:47:55.505Z,56.60
2022-11-08T06:50:21.987Z,56.60
2022-11-08T06:52:48.440Z,56.50
2022-11-08T06:55:14.907Z,56.50
2022-11-08T06:57:41.382Z,56.60
2022-11-08T07:00:12.400Z,56.40
2022-11-08T07:02:38.994Z,56.30
2022-11-08T07:05:05.661Z,56.40
2022-11-08T07:07:32.118Z,56.30
2022-11-08T07:10:03.589Z,56.30
2022-11-08T07:12:30.613Z,56.30
2022-11-08T07:15:00.387Z,56.20
2022-11-08T07:17:26.852Z,56.10
2022-11-08T07:19:54.370Z,56.00
2022-11-08T07:22:20.830Z,55.90
2022-11-08T07:24:47.284Z,56.00
2022-11-08T07:27:13.753Z,56.00
2022-11-08T07:29:40.215Z,56.00
2022-11-08T07:32:06.692Z,56.00
2022-11-08T07:34:36.611Z,55.70
2022-11-08T07:39:53.529Z,55.80
2022-11-08T07:42:19.981Z,55.70
2022-11-08T07:44:46.438Z,55.80
2022-11-08T07:47:12.911Z,55.80
2022-11-08T07:49:39.374Z,55.80
2022-11-08T07:52:05.831Z,55.80
2022-11-08T07:54:32.290Z,55.70
2022-11-08T07:56:58.753Z,55.70
2022-11-08T07:59:25.228Z,55.70
2022-11-08T08:01:54.526Z,55.70
2022-11-08T08:04:21.027Z,55.70
2022-11-08T08:06:47.626Z,55.40
2022-11-08T08:09:14.116Z,55.50
2022-11-08T08:11:40.591Z,55.40
2022-11-08T08:14:12.503Z,55.30
2022-11-08T08:16:38.983Z,55.30
2022-11-08T08:19:05.447Z,55.20
2022-11-08T08:21:36.467Z,55.30
2022-11-08T08:24:02.914Z,55.40
2022-11-08T08:26:30.473Z,55.30
2022-11-08T08:28:56.917Z,55.30
2022-11-08T08:31:23.376Z,55.10
2022-11-08T08:33:49.829Z,55.10
2022-11-08T08:36:16.289Z,55.00
2022-11-08T08:38:48.664Z,55.20
2022-11-08T08:41:15.134Z,55.00
2022-11-08T08:43:41.596Z,55.00
2022-11-08T08:46:12.465Z,55.00
2022-11-08T08:48:38.972Z,55.00
2022-11-08T08:51:05.433Z,54.90
2022-11-08T08:53:31.891Z,54.90
2022-11-08T08:55:58.354Z,54.90
2022-11-08T08:58:24.813Z,54.80
2022-11-08T09:03:37.740Z,54.60
2022-11-08T09:06:04.188Z,54.70
2022-11-08T09:08:36.683Z,54.70
2022-11-08T09:11:03.170Z,54.50
2022-11-08T09:13:30.480Z,54.60
2022-11-08T09:15:57.145Z,54.70
2022-11-08T09:18:24.489Z,54.70
2022-11-08T09:20:50.994Z,54.70
2022-11-08T09:23:24.547Z,54.60
2022-11-08T09:25:51.018Z,54.70
2022-11-08T09:28:17.472Z,54.60
2022-11-08T09:30:43.946Z,54.60
2022-11-08T09:33:10.475Z,54.60
2022-11-08T09:35:37.034Z,54.60
2022-11-08T09:38:03.497Z,54.50
2022-11-08T09:40:29.952Z,54.40
2022-11-08T09:42:56.423Z,54.30
2022-11-08T09:45:22.899Z,54.40
2022-11-08T09:47:53.037Z,54.20
2022-11-08T09:50:19.714Z,54.30
2022-11-08T09:52:48.484Z,54.30
2022-11-08T09:55:18.525Z,54.40
2022-11-08T09:57:44.991Z,54.40
2022-11-08T10:00:12.527Z,54.20
2022-11-08T10:02:42.764Z,54.20
2022-11-08T10:05:09.234Z,54.20
2022-11-08T10:07:36.716Z,54.10
2022-11-08T10:10:06.784Z,54.20
2022-11-08T10:12:33.281Z,54.20
2022-11-08T10:14:59.743Z,54.20
2022-11-08T10:17:26.206Z,54.30
2022-11-08T10:19:52.674Z,54.20
2022-11-08T10:22:19.151Z,54.20
2022-11-08T10:24:45.653Z,54.20
2022-11-08T10:27:12.125Z,54.20
2022-11-08T10:29:38.596Z,54.10
2022-11-08T10:32:06.557Z,54.10
2022-11-08T10:34:33.007Z,54.10
2022-11-08T10:36:59.451Z,54.00
2022-11-08T10:39:25.907Z,54.00
2022-11-08T10:44:42.727Z,54.10
2022-11-08T10:47:09.204Z,54.10
2022-11-08T10:49:36.564Z,54.10
2022-11-08T10:52:06.595Z,54.00
2022-11-08T10:54:33.067Z,54.00
2022-11-08T10:57:00.577Z,53.90
2022-11-08T10:59:27.040Z,54.00
2022-11-08T11:01:54.622Z,54.00
2022-11-08T11:04:21.110Z,54.00
2022-11-08T11:06:47.628Z,53.90
2022-11-08T11:09:14.145Z,54.00
2022-11-08T11:14:30.489Z,53.90
2022-11-08T11:16:56.958Z,53.90
2022-11-08T11:19:23.419Z,53.90
2022-11-08T11:21:49.900Z,53.90
2022-11-08T11:24:19.229Z,54.00
2022-11-08T11:29:37.607Z,53.90
2022-11-08T11:32:06.614Z,53.90
2022-11-08T11:34:33.093Z,53.90
2022-11-08T11:37:00.614Z,53.80
2022-11-08T11:39:30.716Z,53.70
2022-11-08T11:41:57.184Z,53.80
2022-11-08T11:44:24.607Z,53.80
2022-11-08T11:46:51.062Z,53.70
2022-11-08T11:49:17.530Z,53.80
2022-11-08T11:51:44.088Z,53.80
2022-11-08T11:54:10.617Z,53.70
2022-11-08T11:56:37.074Z,53.80
2022-11-08T11:59:03.531Z,53.70
2022-11-08T12:01:30.667Z,53.60
2022-11-08T12:04:06.167Z,53.70
2022-11-08T12:06:32.653Z,53.70
2022-11-08T12:09:00.624Z,53.60
2022-11-08T12:11:27.111Z,53.60
2022-11-08T12:13:54.679Z,53.60
2022-11-08T12:16:21.299Z,53.70
2022-11-08T12:18:48.032Z,53.70
2022-11-08T12:21:14.651Z,53.60
2022-11-08T12:23:42.610Z,53.60
2022-11-08T12:26:09.098Z,53.70
2022-11-08T12:28:48.776Z,53.70
2022-11-08T12:31:15.245Z,53.60
2022-11-08T12:33:41.697Z,53.60
2022-11-08T12:36:08.175Z,53.60
2022-11-08T12:38:34.621Z,53.60
2022-11-08T12:41:01.083Z,53.60
2022-11-08T12:46:16.966Z,53.60
2022-11-08T12:48:43.428Z,53.70
2022-11-08T12:51:09.893Z,53.70
2022-11-08T12:53:36.347Z,53.70
2022-11-08T12:56:02.806Z,53.60
2022-11-08T12:58:33.847Z,53.60
2022-11-08T13:01:06.783Z,53.60
2022-11-08T13:03:36.821Z,53.70
2022-11-08T13:06:03.294Z,53.70
2022-11-08T13:08:30.647Z,53.70
2022-11-08T13:10:57.114Z,53.70
2022-11-08T13:13:24.647Z,53.70
2022-11-08T13:15:54.693Z,53.70
2022-11-08T13:18:21.218Z,53.80
2022-11-08T13:20:47.809Z,53.70
2022-11-08T13:23:14.276Z,53.70
2022-11-08T13:25:40.728Z,53.80
2022-11-08T13:28:07.199Z,53.70
2022-11-08T13:30:36.731Z,53.60
2022-11-08T13:33:03.185Z,53.70
2022-11-08T13:35:29.640Z,53.70
2022-11-08T13:37:56.112Z,53.70
2022-11-08T13:40:22.590Z,53.70
2022-11-08T13:42:49.071Z,53.70
2022-11-08T13:45:15.529Z,53.60
2022-11-08T13:47:41.990Z,53.80
2022-11-08T13:50:12.725Z,53.80
2022-11-08T13:52:39.181Z,53.70
2022-11-08T13:55:05.632Z,53.70
2022-11-08T13:57:32.112Z,53.60
2022-11-08T13:59:58.572Z,53.70
2022-11-08T14:02:25.043Z,53.80
2022-11-08T14:04:51.525Z,53.70
2022-11-08T14:07:22.230Z,53.80
2022-11-08T14:09:51.393Z,53.80
2022-11-08T14:12:17.865Z,53.80
2022-11-08T14:14:44.331Z,53.80
2022-11-08T14:17:12.735Z,53.80
2022-11-08T14:19:39.182Z,53.80
2022-11-08T14:22:05.666Z,53.60
2022-11-08T14:24:42.771Z,53.80
2022-11-08T14:27:09.228Z,53.80
2022-11-08T14:29:35.693Z,53.80
2022-11-08T14:32:02.754Z,53.80
2022-11-08T14:34:29.223Z,53.80
2022-11-08T14:36:56.290Z,53.80
2022-11-08T14:39:22.901Z,53.80
2022-11-08T14:41:49.364Z,53.80
2022-11-08T14:44:15.824Z,53.80
2022-11-08T14:46:42.296Z,53.80
2022-11-08T14:49:12.995Z,53.80
2022-11-08T14:51:39.481Z,53.80
2022-11-08T14:54:05.950Z,53.80
2022-11-08T14:59:24.796Z,53.80
2022-11-08T15:01:51.270Z,53.90
2022-11-08T15:04:17.732Z,53.90
2022-11-08T15:06:44.246Z,53.90
2022-11-08T15:09:12.814Z,53.90
2022-11-08T15:11:39.285Z,53.90
2022-11-08T15:14:05.751Z,53.80
2022-11-08T15:16:32.213Z,53.90
2022-11-08T15:18:58.683Z,53.90
2022-11-08T15:21:25.140Z,53.90
2022-11-08T15:23:54.795Z,53.90
2022-11-08T15:26:21.260Z,53.80
2022-11-08T15:28:47.723Z,54.00
2022-11-08T15:31:14.357Z,54.00
2022-11-08T15:33:40.881Z,53.90
2022-11-08T15:36:07.386Z,54.00
2022-11-08T15:38:33.841Z,53.90
2022-11-08T15:41:00.304Z,53.90
2022-11-08T15:43:26.784Z,53.90
2022-11-08T15:45:53.281Z,53.90
2022-11-08T15:48:19.900Z,53.90
2022-11-08T15:50:48.832Z,53.90
2022-11-08T15:53:18.991Z,53.90
2022-11-08T15:55:45.452Z,54.00
2022-11-08T15:58:11.914Z,53.80
2022-11-08T16:00:38.384Z,53.80
2022-11-08T16:03:04.870Z,53.90
2022-11-08T16:05:31.348Z,53.90
2022-11-08T16:07:57.807Z,54.00
2022-11-08T16:10:24.281Z,53.90
2022-11-08T16:12:50.727Z,53.90
2022-11-08T16:15:17.210Z,53.90
2022-11-08T16:17:43.676Z,54.00
2022-11-08T16:20:10.170Z,54.00
2022-11-08T16:22:36.640Z,54.00
2022-11-08T16:25:03.133Z,53.90
2022-11-08T16:27:29.594Z,53.90
2022-11-08T16:29:56.089Z,54.00
2022-11-08T16:32:22.556Z,54.00
2022-11-08T16:35:00.867Z,53.90
2022-11-08T16:37:27.348Z,54.00
2022-11-08T16:39:53.833Z,54.00
2022-11-08T16:42:20.288Z,54.00
2022-11-08T16:44:46.742Z,54.00
2022-11-08T16:47:13.213Z,54.00
2022-11-08T16:49:39.678Z,53.90
2022-11-08T16:52:06.205Z,54.00
2022-11-08T16:54:32.656Z,53.90
2022-11-08T16:57:28.389Z,54.00
2022-11-08T16:59:47.326Z,54.00
2022-11-08T17:02:13.780Z,54.10
2022-11-08T17:04:40.247Z,54.00
2022-11-08T17:07:11.452Z,54.00
2022-11-08T17:09:40.469Z,54.00
2022-11-08T17:12:06.947Z,54.20
2022-11-08T17:14:33.365Z,54.10
2022-11-08T17:16:59.852Z,54.10
2022-11-08T17:19:26.322Z,54.00
2022-11-08T17:21:52.785Z,54.10
2022-11-08T17:24:21.781Z,54.10
2022-11-08T17:26:48.683Z,54.00
2022-11-08T17:29:18.990Z,54.10
2022-11-08T17:31:48.915Z,54.10
2022-11-08T17:34:19.068Z,54.10
2022-11-08T17:36:45.548Z,54.10
2022-11-08T17:39:12.001Z,54.10
2022-11-08T17:41:42.914Z,54.10
2022-11-08T17:44:09.392Z,54.10
2022-11-08T17:46:36.924Z,54.20
2022-11-08T17:49:19.091Z,54.20
2022-11-08T17:51:48.924Z,54.20
2022-11-08T17:54:15.393Z,54.30
2022-11-08T17:56:41.851Z,54.20
2022-11-08T17:59:08.316Z,54.30
2022-11-08T18:01:34.946Z,54.30
2022-11-08T18:04:07.076Z,54.20
2022-11-08T18:06:33.601Z,54.20
2022-11-08T18:09:07.049Z,54.20
2022-11-08T18:11:33.529Z,54.30
2022-11-08T18:14:00.002Z,54.20
2022-11-08T18:16:26.479Z,54.30
2022-11-08T18:18:54.896Z,54.30
2022-11-08T18:21:21.349Z,54.30
2022-11-08T18:23:47.799Z,54.40
2022-11-08T18:26:14.288Z,54.40
2022-11-08T18:28:42.937Z,54.40
2022-11-08T18:31:09.428Z,54.30
2022-11-08T18:33:35.881Z,54.30
2022-11-08T18:36:06.958Z,54.40
2022-11-08T18:38:33.419Z,54.40
2022-11-08T18:40:59.899Z,54.40
2022-11-08T18:43:26.361Z,54.40
2022-11-08T18:45:52.835Z,54.40
2022-11-08T18:48:19.286Z,54.40
2022-11-08T18:50:45.745Z,54.40
2022-11-08T18:53:12.205Z,54.50
2022-11-08T18:55:38.675Z,54.50
2022-11-08T18:58:05.300Z,54.50
2022-11-08T19:00:36.988Z,54.50
2022-11-08T19:03:03.435Z,54.50
2022-11-08T19:05:29.926Z,54.40
2022-11-08T19:08:01.138Z,54.50
2022-11-08T19:13:17.907Z,54.50
2022-11-08T19:15:44.512Z,54.50
2022-11-08T19:18:12.946Z,54.60
2022-11-08T19:20:42.997Z,54.60
2022-11-08T19:23:09.463Z,54.60
2022-11-08T19:25:35.941Z,54.60
2022-11-08T19:28:07.102Z,54.60
2022-11-08T19:30:33.564Z,54.60
2022-11-08T19:35:43.922Z,54.60
2022-11-08T19:38:10.377Z,54.60
2022-11-08T19:40:36.998Z,54.70
2022-11-08T19:43:07.245Z,54.70
2022-11-08T19:45:37.020Z,54.70
2022-11-08T19:48:03.464Z,54.70
2022-11-08T19:50:29.915Z,54.70
2022-11-08T19:52:56.394Z,54.70
2022-11-08T19:55:22.847Z,54.60
2022-11-08T19:57:49.354Z,54.80
2022-11-08T20:00:15.846Z,54.60
2022-11-08T20:02:42.986Z,54.60
2022-11-08T20:05:09.475Z,54.60
2022-11-08T20:07:35.940Z,54.70
2022-11-08T20:10:02.446Z,54.80
2022-11-08T20:12:28.920Z,54.80
2022-11-08T20:14:55.397Z,54.70
2022-11-08T20:17:21.875Z,54.80
2022-11-08T20:19:49.061Z,54.80
2022-11-08T20:22:15.527Z,54.80
2022-11-08T20:24:42.023Z,54.80
2022-11-08T20:27:08.487Z,54.80
2022-11-08T20:29:37.049Z,54.80
2022-11-08T20:32:03.807Z,54.80
2022-11-08T20:37:21.187Z,54.80
2022-11-08T20:39:47.833Z,54.80
2022-11-08T20:42:14.303Z,54.90
2022-11-08T20:44:43.124Z,54.90
2022-11-08T20:47:13.161Z,54.90
2022-11-08T20:49:39.640Z,55.00
2022-11-08T20:52:07.025Z,54.90
2022-11-08T20:54:33.513Z,54.90
2022-11-08T20:56:59.972Z,54.90
2022-11-08T20:59:31.097Z,55.00
2022-11-08T21:01:57.700Z,55.00
2022-11-08T21:04:24.189Z,55.00
2022-11-08T21:07:14.561Z,54.90
2022-11-08T21:09:49.321Z,55.00
2022-11-08T21:12:17.129Z,55.00
2022-11-08T21:14:49.163Z,55.10
2022-11-08T21:17:21.759Z,55.00
2022-11-08T21:19:48.814Z,55.00
2022-11-08T21:22:19.092Z,55.10
2022-11-08T21:24:45.551Z,55.10
2022-11-08T21:27:13.101Z,55.10
2022-11-08T21:29:39.570Z,55.10
2022-11-08T21:32:07.097Z,55.10
2022-11-08T21:34:33.567Z,55.10
2022-11-08T21:37:00.048Z,55.10
2022-11-08T21:39:26.522Z,55.20
2022-11-08T21:41:52.995Z,55.20
2022-11-08T21:44:19.449Z,55.10
2022-11-08T21:46:45.915Z,55.10
2022-11-08T21:49:12.378Z,55.10
2022-11-08T21:51:43.121Z,55.10
2022-11-08T21:54:09.591Z,55.10
2022-11-08T21:56:36.071Z,55.20
2022-11-08T21:59:02.530Z,55.20
2022-11-08T22:01:30.790Z,55.20
2022-11-08T22:03:57.449Z,55.20
2022-11-08T22:06:23.937Z,55.20
2022-11-08T22:08:50.421Z,55.20
2022-11-08T22:11:16.891Z,55.30
2022-11-08T22:13:43.364Z,55.30
2022-11-08T22:16:13.148Z,55.30
2022-11-08T22:21:26.062Z,55.30
2022-11-08T22:23:52.534Z,55.30
2022-11-08T22:26:19.019Z,55.30
2022-11-08T22:28:49.204Z,55.40
2022-11-08T22:31:15.671Z,55.30
2022-11-08T22:33:42.150Z,55.30
2022-11-08T22:36:08.607Z,55.30
2022-11-08T22:38:35.075Z,55.30
2022-11-08T22:41:01.536Z,55.20
2022-11-08T22:43:28.004Z,55.40
2022-11-08T22:48:44.760Z,55.40
2022-11-08T22:51:11.219Z,55.30
2022-11-08T22:53:37.703Z,55.40
2022-11-08T22:56:09.760Z,55.50
2022-11-08T22:58:37.645Z,55.40
2022-11-08T23:01:04.108Z,55.50
2022-11-08T23:03:30.571Z,55.40
2022-11-08T23:05:57.052Z,55.40
2022-11-08T23:08:23.491Z,55.40
2022-11-08T23:10:49.995Z,55.50
2022-11-08T23:13:16.791Z,55.50
2022-11-08T23:18:34.137Z,55.50
2022-11-08T23:21:00.602Z,55.60
2022-11-08T23:23:27.062Z,55.60
2022-11-08T23:25:55.190Z,55.60
2022-11-08T23:28:21.647Z,55.60
2022-11-08T23:30:48.127Z,55.50
2022-11-08T23:33:14.585Z,55.60
2022-11-08T23:35:43.211Z,55.70
2022-11-08T23:38:13.228Z,55.60
2022-11-08T23:40:39.717Z,55.60
2022-11-08T23:45:55.218Z,55.60
2022-11-08T23:48:21.669Z,55.60
2022-11-08T23:50:48.152Z,55.60
2022-11-08T23:53:14.623Z,55.70
2022-11-08T23:55:41.075Z,55.70
2022-11-08T23:58:07.526Z,55.70
